sensor_id;sensor_type;location;lat;lon;timestamp;P1;durP1;ratioP1;P2;durP2;ratioP2
63005;SDS011;53704;52.532;6.426;2023-06-19T00:50:21;7.65;;;7.07;;
63005;SDS011;53704;52.532;6.426;2023-06-19T00:52:47;7.32;;;6.82;;
63005;SDS011;53704;52.532;6.426;2023-06-19T00:55:13;7.97;;;7.13;;
63005;SDS011;53704;52.532;6.426;2023-06-19T00:57:43;8.38;;;7.50;;
63005;SDS011;53704;52.532;6.426;2023-06-19T01:00:10;7.60;;;7.03;;
63005;SDS011;53704;52.532;6.426;2023-06-19T01:02:38;8.25;;;7.30;;
63005;SDS011;53704;52.532;6.426;2023-06-19T01:05:04;7.82;;;7.22;;
63005;SDS011;53704;52.532;6.426;2023-06-19T01:10:07;8.10;;;7.05;;
63005;SDS011;53704;52.532;6.426;2023-06-19T01:12:38;7.65;;;7.05;;
63005;SDS011;53704;52.532;6.426;2023-06-19T01:15:09;7.82;;;7.25;;
63005;SDS011;53704;52.532;6.426;2023-06-19T01:17:35;6.88;;;6.57;;
63005;SDS011;53704;52.532;6.426;2023-06-19T01:20:02;7.43;;;7.03;;
63005;SDS011;53704;52.532;6.426;2023-06-19T01:22:34;7.65;;;6.82;;
63005;SDS011;53704;52.532;6.426;2023-06-19T01:24:59;6.88;;;6.47;;
63005;SDS011;53704;52.532;6.426;2023-06-19T01:27:25;7.47;;;6.93;;
63005;SDS011;53704;52.532;6.426;2023-06-19T01:29:55;7.47;;;7.03;;
63005;SDS011;53704;52.532;6.426;2023-06-19T01:35:13;7.40;;;6.85;;
63005;SDS011;53704;52.532;6.426;2023-06-19T01:37:43;6.65;;;6.28;;
63005;SDS011;53704;52.532;6.426;2023-06-19T01:40:10;8.57;;;6.90;;
63005;SDS011;53704;52.532;6.426;2023-06-19T01:42:37;7.38;;;6.93;;
63005;SDS011;53704;52.532;6.426;2023-06-19T01:45:04;7.28;;;6.60;;
63005;SDS011;53704;52.532;6.426;2023-06-19T01:47:31;7.40;;;6.65;;
63005;SDS011;53704;52.532;6.426;2023-06-19T01:49:57;7.38;;;6.88;;
63005;SDS011;53704;52.532;6.426;2023-06-19T01:52:23;7.50;;;6.70;;
63005;SDS011;53704;52.532;6.426;2023-06-19T01:54:49;6.80;;;6.40;;
63005;SDS011;53704;52.532;6.426;2023-06-19T01:57:15;6.75;;;6.30;;
63005;SDS011;53704;52.532;6.426;2023-06-19T01:59:40;6.55;;;6.03;;
63005;SDS011;53704;52.532;6.426;2023-06-19T02:02:06;7.57;;;6.47;;
63005;SDS011;53704;52.532;6.426;2023-06-19T02:04:32;6.28;;;5.85;;
63005;SDS011;53704;52.532;6.426;2023-06-19T02:06:58;7.07;;;6.40;;
63005;SDS011;53704;52.532;6.426;2023-06-19T02:09:23;6.65;;;6.00;;
63005;SDS011;53704;52.532;6.426;2023-06-19T02:11:48;6.07;;;5.68;;
63005;SDS011;53704;52.532;6.426;2023-06-19T02:14:14;6.68;;;5.53;;
63005;SDS011;53704;52.532;6.426;2023-06-19T02:16:39;6.88;;;6.15;;
63005;SDS011;53704;52.532;6.426;2023-06-19T02:19:09;6.32;;;5.75;;
63005;SDS011;53704;52.532;6.426;2023-06-19T02:21:35;11.93;;;5.80;;
63005;SDS011;53704;52.532;6.426;2023-06-19T02:24:01;7.05;;;6.20;;
63005;SDS011;53704;52.532;6.426;2023-06-19T02:26:27;11.23;;;5.65;;
63005;SDS011;53704;52.532;6.426;2023-06-19T02:28:54;8.35;;;6.00;;
63005;SDS011;53704;52.532;6.426;2023-06-19T02:31:21;6.82;;;6.18;;
63005;SDS011;53704;52.532;6.426;2023-06-19T02:33:49;8.13;;;5.80;;
63005;SDS011;53704;52.532;6.426;2023-06-19T02:36:14;10.40;;;6.18;;
63005;SDS011;53704;52.532;6.426;2023-06-19T02:38:47;7.15;;;6.05;;
63005;SDS011;53704;52.532;6.426;2023-06-19T02:41:15;7.97;;;5.80;;
63005;SDS011;53704;52.532;6.426;2023-06-19T02:46:09;10.93;;;5.90;;
63005;SDS011;53704;52.532;6.426;2023-06-19T02:48:35;6.18;;;5.70;;
63005;SDS011;53704;52.532;6.426;2023-06-19T02:51:00;5.95;;;5.45;;
63005;SDS011;53704;52.532;6.426;2023-06-19T02:53:26;6.25;;;5.70;;
63005;SDS011;53704;52.532;6.426;2023-06-19T02:55:52;8.82;;;5.68;;
63005;SDS011;53704;52.532;6.426;2023-06-19T02:58:17;6.22;;;5.70;;
63005;SDS011;53704;52.532;6.426;2023-06-19T03:00:43;9.65;;;6.47;;
63005;SDS011;53704;52.532;6.426;2023-06-19T03:03:08;6.57;;;6.18;;
63005;SDS011;53704;52.532;6.426;2023-06-19T03:05:34;7.78;;;5.32;;
63005;SDS011;53704;52.532;6.426;2023-06-19T03:08:00;7.90;;;5.90;;
63005;SDS011;53704;52.532;6.426;2023-06-19T03:10:25;7.82;;;6.07;;
63005;SDS011;53704;52.532;6.426;2023-06-19T03:12:50;12.25;;;5.88;;
63005;SDS011;53704;52.532;6.426;2023-06-19T03:15:16;7.32;;;5.97;;
63005;SDS011;53704;52.532;6.426;2023-06-19T03:17:41;5.97;;;5.43;;
63005;SDS011;53704;52.532;6.426;2023-06-19T03:20:07;6.15;;;5.75;;
63005;SDS011;53704;52.532;6.426;2023-06-19T03:22:36;5.63;;;5.13;;
63005;SDS011;53704;52.532;6.426;2023-06-19T03:25:02;7.47;;;5.53;;
63005;SDS011;53704;52.532;6.426;2023-06-19T03:27:28;6.18;;;4.90;;
63005;SDS011;53704;52.532;6.426;2023-06-19T03:29:54;5.50;;;5.10;;
63005;SDS011;53704;52.532;6.426;2023-06-19T03:32:19;5.75;;;4.72;;
63005;SDS011;53704;52.532;6.426;2023-06-19T03:34:45;4.97;;;4.57;;
63005;SDS011;53704;52.532;6.426;2023-06-19T03:37:11;8.25;;;4.63;;
63005;SDS011;53704;52.532;6.426;2023-06-19T03:39:38;5.53;;;5.05;;
63005;SDS011;53704;52.532;6.426;2023-06-19T03:42:03;5.05;;;4.55;;
63005;SDS011;53704;52.532;6.426;2023-06-19T03:44:29;4.63;;;4.43;;
63005;SDS011;53704;52.532;6.426;2023-06-19T03:46:54;4.55;;;4.25;;
63005;SDS011;53704;52.532;6.426;2023-06-19T03:49:19;4.38;;;3.95;;
63005;SDS011;53704;52.532;6.426;2023-06-19T03:51:45;4.82;;;4.40;;
63005;SDS011;53704;52.532;6.426;2023-06-19T03:54:10;3.88;;;3.67;;
63005;SDS011;53704;52.532;6.426;2023-06-19T03:56:36;4.57;;;3.92;;
63005;SDS011;53704;52.532;6.426;2023-06-19T03:59:01;4.75;;;3.47;;
63005;SDS011;53704;52.532;6.426;2023-06-19T04:01:27;4.13;;;3.80;;
63005;SDS011;53704;52.532;6.426;2023-06-19T04:03:53;5.00;;;3.50;;
63005;SDS011;53704;52.532;6.426;2023-06-19T04:06:18;6.60;;;3.60;;
63005;SDS011;53704;52.532;6.426;2023-06-19T04:08:44;7.53;;;3.72;;
63005;SDS011;53704;52.532;6.426;2023-06-19T04:11:09;3.88;;;3.60;;
63005;SDS011;53704;52.532;6.426;2023-06-19T04:13:34;4.72;;;3.70;;
63005;SDS011;53704;52.532;6.426;2023-06-19T04:16:00;4.40;;;4.00;;
63005;SDS011;53704;52.532;6.426;2023-06-19T04:18:25;3.70;;;3.40;;
63005;SDS011;53704;52.532;6.426;2023-06-19T04:20:52;4.28;;;3.72;;
63005;SDS011;53704;52.532;6.426;2023-06-19T04:23:18;5.47;;;3.58;;
63005;SDS011;53704;52.532;6.426;2023-06-19T04:25:44;6.60;;;3.60;;
63005;SDS011;53704;52.532;6.426;2023-06-19T04:28:09;3.55;;;3.25;;
63005;SDS011;53704;52.532;6.426;2023-06-19T04:30:34;4.38;;;3.95;;
63005;SDS011;53704;52.532;6.426;2023-06-19T04:33:00;3.88;;;3.65;;
63005;SDS011;53704;52.532;6.426;2023-06-19T04:35:25;3.38;;;3.28;;
63005;SDS011;53704;52.532;6.426;2023-06-19T04:37:53;6.20;;;4.03;;
63005;SDS011;53704;52.532;6.426;2023-06-19T04:40:18;4.00;;;3.65;;
63005;SDS011;53704;52.532;6.426;2023-06-19T04:42:44;3.47;;;3.38;;
63005;SDS011;53704;52.532;6.426;2023-06-19T04:45:10;3.92;;;3.63;;
63005;SDS011;53704;52.532;6.426;2023-06-19T04:47:35;3.53;;;3.28;;
63005;SDS011;53704;52.532;6.426;2023-06-19T04:50:01;4.45;;;4.18;;
63005;SDS011;53704;52.532;6.426;2023-06-19T04:52:26;3.83;;;3.40;;
63005;SDS011;53704;52.532;6.426;2023-06-19T04:54:52;3.97;;;3.78;;
63005;SDS011;53704;52.532;6.426;2023-06-19T04:57:17;4.00;;;3.80;;
63005;SDS011;53704;52.532;6.426;2023-06-19T04:59:43;4.40;;;4.10;;
63005;SDS011;53704;52.532;6.426;2023-06-19T05:02:11;3.58;;;3.38;;
63005;SDS011;53704;52.532;6.426;2023-06-19T05:04:36;5.07;;;3.72;;
63005;SDS011;53704;52.532;6.426;2023-06-19T05:07:02;5.25;;;3.90;;
63005;SDS011;53704;52.532;6.426;2023-06-19T05:09:28;5.35;;;3.75;;
63005;SDS011;53704;52.532;6.426;2023-06-19T05:11:53;3.67;;;3.22;;
63005;SDS011;53704;52.532;6.426;2023-06-19T05:14:19;3.90;;;3.60;;
63005;SDS011;53704;52.532;6.426;2023-06-19T05:16:45;3.40;;;3.20;;
63005;SDS011;53704;52.532;6.426;2023-06-19T05:19:10;4.35;;;3.95;;
63005;SDS011;53704;52.532;6.426;2023-06-19T05:21:36;5.15;;;3.67;;
63005;SDS011;53704;52.532;6.426;2023-06-19T05:24:01;4.80;;;3.38;;
63005;SDS011;53704;52.532;6.426;2023-06-19T05:26:27;3.40;;;3.20;;
63005;SDS011;53704;52.532;6.426;2023-06-19T05:28:52;4.57;;;3.60;;
63005;SDS011;53704;52.532;6.426;2023-06-19T05:31:18;3.60;;;3.40;;
63005;SDS011;53704;52.532;6.426;2023-06-19T05:33:44;5.05;;;3.72;;
63005;SDS011;53704;52.532;6.426;2023-06-19T05:36:10;3.95;;;3.55;;
63005;SDS011;53704;52.532;6.426;2023-06-19T05:38:36;3.92;;;3.63;;
63005;SDS011;53704;52.532;6.426;2023-06-19T05:41:02;3.83;;;3.63;;
63005;SDS011;53704;52.532;6.426;2023-06-19T05:43:28;3.97;;;3.70;;
63005;SDS011;53704;52.532;6.426;2023-06-19T05:45:54;6.13;;;3.40;;
63005;SDS011;53704;52.532;6.426;2023-06-19T05:48:23;8.60;;;3.97;;
63005;SDS011;53704;52.532;6.426;2023-06-19T05:50:50;15.73;;;3.85;;
63005;SDS011;53704;52.532;6.426;2023-06-19T05:53:15;4.05;;;3.75;;
63005;SDS011;53704;52.532;6.426;2023-06-19T05:55:40;4.25;;;3.95;;
63005;SDS011;53704;52.532;6.426;2023-06-19T05:58:06;4.18;;;3.92;;
63005;SDS011;53704;52.532;6.426;2023-06-19T06:00:31;3.85;;;3.22;;
63005;SDS011;53704;52.532;6.426;2023-06-19T06:02:57;4.80;;;4.35;;
63005;SDS011;53704;52.532;6.426;2023-06-19T06:05:25;3.90;;;3.65;;
63005;SDS011;53704;52.532;6.426;2023-06-19T06:07:51;4.40;;;4.10;;
63005;SDS011;53704;52.532;6.426;2023-06-19T06:10:19;6.38;;;4.15;;
63005;SDS011;53704;52.532;6.426;2023-06-19T06:12:45;3.95;;;3.72;;
63005;SDS011;53704;52.532;6.426;2023-06-19T06:15:11;4.53;;;3.78;;
63005;SDS011;53704;52.532;6.426;2023-06-19T06:17:36;5.28;;;3.85;;
63005;SDS011;53704;52.532;6.426;2023-06-19T06:20:02;5.97;;;4.18;;
63005;SDS011;53704;52.532;6.426;2023-06-19T06:22:32;4.03;;;3.70;;
63005;SDS011;53704;52.532;6.426;2023-06-19T06:24:58;4.20;;;3.88;;
63005;SDS011;53704;52.532;6.426;2023-06-19T06:27:23;5.82;;;3.85;;
63005;SDS011;53704;52.532;6.426;2023-06-19T06:29:48;7.78;;;4.35;;
63005;SDS011;53704;52.532;6.426;2023-06-19T06:32:14;4.05;;;3.80;;
63005;SDS011;53704;52.532;6.426;2023-06-19T06:34:39;3.90;;;3.60;;
63005;SDS011;53704;52.532;6.426;2023-06-19T06:37:05;5.15;;;4.50;;
63005;SDS011;53704;52.532;6.426;2023-06-19T06:39:30;6.78;;;4.72;;
63005;SDS011;53704;52.532;6.426;2023-06-19T06:41:55;4.55;;;4.18;;
63005;SDS011;53704;52.532;6.426;2023-06-19T06:44:21;7.22;;;4.68;;
63005;SDS011;53704;52.532;6.426;2023-06-19T06:46:47;7.10;;;4.50;;
63005;SDS011;53704;52.532;6.426;2023-06-19T06:49:12;4.57;;;4.20;;
63005;SDS011;53704;52.532;6.426;2023-06-19T06:51:38;4.35;;;4.15;;
63005;SDS011;53704;52.532;6.426;2023-06-19T06:54:04;5.90;;;4.30;;
63005;SDS011;53704;52.532;6.426;2023-06-19T06:56:29;6.75;;;4.55;;
63005;SDS011;53704;52.532;6.426;2023-06-19T06:58:55;10.60;;;4.70;;
63005;SDS011;53704;52.532;6.426;2023-06-19T07:01:20;4.38;;;4.10;;
63005;SDS011;53704;52.532;6.426;2023-06-19T07:03:45;6.38;;;4.55;;
63005;SDS011;53704;52.532;6.426;2023-06-19T07:06:11;4.93;;;4.25;;
63005;SDS011;53704;52.532;6.426;2023-06-19T07:08:36;5.10;;;4.80;;
63005;SDS011;53704;52.532;6.426;2023-06-19T07:11:02;5.15;;;4.75;;
63005;SDS011;53704;52.532;6.426;2023-06-19T07:13:27;6.80;;;5.40;;
63005;SDS011;53704;52.532;6.426;2023-06-19T07:15:53;5.63;;;5.32;;
63005;SDS011;53704;52.532;6.426;2023-06-19T07:18:18;5.72;;;4.70;;
63005;SDS011;53704;52.532;6.426;2023-06-19T07:20:44;5.90;;;5.13;;
63005;SDS011;53704;52.532;6.426;2023-06-19T07:23:10;5.45;;;5.07;;
63005;SDS011;53704;52.532;6.426;2023-06-19T07:25:35;5.70;;;5.15;;
63005;SDS011;53704;52.532;6.426;2023-06-19T07:28:01;5.38;;;5.07;;
63005;SDS011;53704;52.532;6.426;2023-06-19T07:30:26;6.38;;;5.85;;
63005;SDS011;53704;52.532;6.426;2023-06-19T07:32:52;6.25;;;5.72;;
63005;SDS011;53704;52.532;6.426;2023-06-19T07:35:18;8.00;;;5.35;;
63005;SDS011;53704;52.532;6.426;2023-06-19T07:37:44;8.23;;;5.50;;
63005;SDS011;53704;52.532;6.426;2023-06-19T07:40:10;6.22;;;5.68;;
63005;SDS011;53704;52.532;6.426;2023-06-19T07:42:36;6.90;;;6.32;;
63005;SDS011;53704;52.532;6.426;2023-06-19T07:45:01;6.60;;;5.97;;
63005;SDS011;53704;52.532;6.426;2023-06-19T07:47:27;12.77;;;5.63;;
63005;SDS011;53704;52.532;6.426;2023-06-19T07:49:52;6.22;;;5.82;;
63005;SDS011;53704;52.532;6.426;2023-06-19T07:52:18;7.30;;;6.80;;
63005;SDS011;53704;52.532;6.426;2023-06-19T07:54:50;6.88;;;6.20;;
63005;SDS011;53704;52.532;6.426;2023-06-19T07:57:17;7.88;;;6.93;;
63005;SDS011;53704;52.532;6.426;2023-06-19T07:59:42;30.00;;;8.70;;
63005;SDS011;53704;52.532;6.426;2023-06-19T08:02:07;11.10;;;6.63;;
63005;SDS011;53704;52.532;6.426;2023-06-19T08:04:33;6.80;;;6.07;;
63005;SDS011;53704;52.532;6.426;2023-06-19T08:06:58;9.27;;;6.70;;
63005;SDS011;53704;52.532;6.426;2023-06-19T08:09:24;7.00;;;6.40;;
63005;SDS011;53704;52.532;6.426;2023-06-19T08:11:49;7.35;;;6.82;;
63005;SDS011;53704;52.532;6.426;2023-06-19T08:14:15;5.72;;;5.43;;
63005;SDS011;53704;52.532;6.426;2023-06-19T08:16:40;7.75;;;6.18;;
63005;SDS011;53704;52.532;6.426;2023-06-19T08:19:07;5.68;;;5.18;;
63005;SDS011;53704;52.532;6.426;2023-06-19T08:21:32;8.27;;;6.20;;
63005;SDS011;53704;52.532;6.426;2023-06-19T08:23:57;7.72;;;6.90;;
63005;SDS011;53704;52.532;6.426;2023-06-19T08:26:23;8.15;;;6.47;;
63005;SDS011;53704;52.532;6.426;2023-06-19T08:28:49;44.50;;;9.90;;
63005;SDS011;53704;52.532;6.426;2023-06-19T08:31:14;5.85;;;5.38;;
63005;SDS011;53704;52.532;6.426;2023-06-19T08:33:39;20.45;;;5.15;;
63005;SDS011;53704;52.532;6.426;2023-06-19T08:36:05;10.40;;;5.57;;
63005;SDS011;53704;52.532;6.426;2023-06-19T08:38:30;10.88;;;4.85;;
63005;SDS011;53704;52.532;6.426;2023-06-19T08:40:56;7.47;;;5.28;;
63005;SDS011;53704;52.532;6.426;2023-06-19T08:43:21;6.85;;;4.72;;
63005;SDS011;53704;52.532;6.426;2023-06-19T08:46:20;10.90;;;5.47;;
63005;SDS011;53704;52.532;6.426;2023-06-19T08:48:42;11.75;;;5.70;;
63005;SDS011;53704;52.532;6.426;2023-06-19T08:51:09;8.65;;;7.00;;
63005;SDS011;53704;52.532;6.426;2023-06-19T08:53:36;9.20;;;6.50;;
63005;SDS011;53704;52.532;6.426;2023-06-19T08:56:09;10.43;;;8.03;;
63005;SDS011;53704;52.532;6.426;2023-06-19T08:58:34;11.55;;;7.40;;
63005;SDS011;53704;52.532;6.426;2023-06-19T09:01:00;8.02;;;7.35;;
63005;SDS011;53704;52.532;6.426;2023-06-19T09:03:25;8.77;;;7.60;;
63005;SDS011;53704;52.532;6.426;2023-06-19T09:05:51;8.23;;;7.60;;
63005;SDS011;53704;52.532;6.426;2023-06-19T09:08:17;7.28;;;6.50;;
63005;SDS011;53704;52.532;6.426;2023-06-19T09:10:56;8.07;;;6.20;;
63005;SDS011;53704;52.532;6.426;2023-06-19T09:13:25;8.07;;;6.65;;
63005;SDS011;53704;52.532;6.426;2023-06-19T09:16:01;16.10;;;6.72;;
63005;SDS011;53704;52.532;6.426;2023-06-19T09:18:31;6.32;;;5.65;;
63005;SDS011;53704;52.532;6.426;2023-06-19T09:21:06;6.72;;;6.18;;
63005;SDS011;53704;52.532;6.426;2023-06-19T09:23:39;11.38;;;7.85;;
63005;SDS011;53704;52.532;6.426;2023-06-19T09:26:04;9.20;;;6.38;;
63005;SDS011;53704;52.532;6.426;2023-06-19T09:28:30;7.38;;;6.43;;
63005;SDS011;53704;52.532;6.426;2023-06-19T09:30:58;6.63;;;6.18;;
63005;SDS011;53704;52.532;6.426;2023-06-19T09:33:26;6.50;;;6.00;;
63005;SDS011;53704;52.532;6.426;2023-06-19T09:35:53;10.50;;;7.40;;
63005;SDS011;53704;52.532;6.426;2023-06-19T09:38:21;7.63;;;6.40;;
63005;SDS011;53704;52.532;6.426;2023-06-19T09:40:49;6.50;;;6.00;;
63005;SDS011;53704;52.532;6.426;2023-06-19T09:43:18;7.15;;;6.40;;
63005;SDS011;53704;52.532;6.426;2023-06-19T09:45:48;12.57;;;6.22;;
63005;SDS011;53704;52.532;6.426;2023-06-19T09:48:20;7.20;;;5.47;;
63005;SDS011;53704;52.532;6.426;2023-06-19T09:50:59;8.63;;;6.13;;
63005;SDS011;53704;52.532;6.426;2023-06-19T09:53:37;6.00;;;5.40;;
63005;SDS011;53704;52.532;6.426;2023-06-19T09:56:02;8.20;;;4.90;;
63005;SDS011;53704;52.532;6.426;2023-06-19T09:58:28;10.77;;;5.70;;
63005;SDS011;53704;52.532;6.426;2023-06-19T10:00:55;6.13;;;5.63;;
63005;SDS011;53704;52.532;6.426;2023-06-19T10:03:29;6.07;;;5.57;;
63005;SDS011;53704;52.532;6.426;2023-06-19T10:05:59;9.88;;;5.45;;
63005;SDS011;53704;52.532;6.426;2023-06-19T10:08:38;7.00;;;6.25;;
63005;SDS011;53704;52.532;6.426;2023-06-19T10:11:06;7.13;;;5.43;;
63005;SDS011;53704;52.532;6.426;2023-06-19T10:13:32;7.70;;;5.20;;
63005;SDS011;53704;52.532;6.426;2023-06-19T10:15:59;6.47;;;5.88;;
63005;SDS011;53704;52.532;6.426;2023-06-19T10:18:25;8.10;;;5.65;;
63005;SDS011;53704;52.532;6.426;2023-06-19T10:20:51;5.60;;;5.10;;
63005;SDS011;53704;52.532;6.426;2023-06-19T10:23:19;8.85;;;5.50;;
63005;SDS011;53704;52.532;6.426;2023-06-19T10:33:18;6.50;;;5.80;;
63005;SDS011;53704;52.532;6.426;2023-06-19T10:35:43;10.57;;;5.40;;
63005;SDS011;53704;52.532;6.426;2023-06-19T10:38:09;6.78;;;6.00;;
63005;SDS011;53704;52.532;6.426;2023-06-19T10:40:36;8.93;;;5.70;;
63005;SDS011;53704;52.532;6.426;2023-06-19T10:43:02;6.68;;;5.57;;
63005;SDS011;53704;52.532;6.426;2023-06-19T10:45:29;11.20;;;6.35;;
63005;SDS011;53704;52.532;6.426;2023-06-19T10:47:54;10.18;;;5.68;;
63005;SDS011;53704;52.532;6.426;2023-06-19T10:50:20;6.10;;;5.45;;
63005;SDS011;53704;52.532;6.426;2023-06-19T10:52:48;8.13;;;6.03;;
63005;SDS011;53704;52.532;6.426;2023-06-19T10:55:20;8.75;;;5.47;;
63005;SDS011;53704;52.532;6.426;2023-06-19T10:57:46;10.38;;;5.70;;
63005;SDS011;53704;52.532;6.426;2023-06-19T11:00:27;8.00;;;5.60;;
63005;SDS011;53704;52.532;6.426;2023-06-19T11:02:56;14.32;;;7.10;;
63005;SDS011;53704;52.532;6.426;2023-06-19T11:05:24;6.35;;;5.95;;
63005;SDS011;53704;52.532;6.426;2023-06-19T11:07:54;7.95;;;6.82;;
63005;SDS011;53704;52.532;6.426;2023-06-19T11:10:21;11.48;;;6.35;;
63005;SDS011;53704;52.532;6.426;2023-06-19T11:12:48;9.80;;;6.80;;
63005;SDS011;53704;52.532;6.426;2023-06-19T11:15:15;8.68;;;5.80;;
63005;SDS011;53704;52.532;6.426;2023-06-19T11:17:40;12.23;;;6.20;;
63005;SDS011;53704;52.532;6.426;2023-06-19T11:20:09;11.55;;;6.20;;
63005;SDS011;53704;52.532;6.426;2023-06-19T11:22:39;7.28;;;6.53;;
63005;SDS011;53704;52.532;6.426;2023-06-19T11:25:06;6.97;;;5.60;;
63005;SDS011;53704;52.532;6.426;2023-06-19T11:27:33;6.95;;;6.30;;
63005;SDS011;53704;52.532;6.426;2023-06-19T11:30:00;7.60;;;6.22;;
63005;SDS011;53704;52.532;6.426;2023-06-19T11:32:33;8.10;;;6.90;;
63005;SDS011;53704;52.532;6.426;2023-06-19T11:35:06;10.23;;;6.30;;
63005;SDS011;53704;52.532;6.426;2023-06-19T11:37:33;13.30;;;7.95;;
63005;SDS011;53704;52.532;6.426;2023-06-19T11:39:59;8.45;;;6.72;;
63005;SDS011;53704;52.532;6.426;2023-06-19T11:42:25;8.00;;;7.15;;
63005;SDS011;53704;52.532;6.426;2023-06-19T11:44:54;12.75;;;6.72;;
63005;SDS011;53704;52.532;6.426;2023-06-19T11:47:20;8.77;;;5.97;;
63005;SDS011;53704;52.532;6.426;2023-06-19T11:49:49;9.40;;;6.70;;
63005;SDS011;53704;52.532;6.426;2023-06-19T11:52:16;7.28;;;6.18;;
63005;SDS011;53704;52.532;6.426;2023-06-19T11:54:42;7.50;;;6.70;;
63005;SDS011;53704;52.532;6.426;2023-06-19T11:57:09;6.60;;;6.00;;
63005;SDS011;53704;52.532;6.426;2023-06-19T11:59:38;8.68;;;7.78;;
63005;SDS011;53704;52.532;6.426;2023-06-19T12:02:07;10.07;;;6.80;;
63005;SDS011;53704;52.532;6.426;2023-06-19T12:04:33;7.95;;;6.80;;
63005;SDS011;53704;52.532;6.426;2023-06-19T12:06:58;9.05;;;6.90;;
63005;SDS011;53704;52.532;6.426;2023-06-19T12:09:24;7.25;;;6.53;;
63005;SDS011;53704;52.532;6.426;2023-06-19T12:11:53;6.68;;;6.07;;
63005;SDS011;53704;52.532;6.426;2023-06-19T12:14:18;8.30;;;6.28;;
63005;SDS011;53704;52.532;6.426;2023-06-19T12:16:47;7.13;;;6.45;;
63005;SDS011;53704;52.532;6.426;2023-06-19T12:19:13;9.18;;;6.45;;
63005;SDS011;53704;52.532;6.426;2023-06-19T12:21:39;6.93;;;6.00;;
63005;SDS011;53704;52.532;6.426;2023-06-19T12:24:05;10.50;;;6.68;;
63005;SDS011;53704;52.532;6.426;2023-06-19T12:26:30;11.43;;;7.20;;
63005;SDS011;53704;52.532;6.426;2023-06-19T12:29:01;7.28;;;6.63;;
63005;SDS011;53704;52.532;6.426;2023-06-19T12:31:28;8.00;;;7.07;;
63005;SDS011;53704;52.532;6.426;2023-06-19T12:33:53;7.90;;;7.20;;
63005;SDS011;53704;52.532;6.426;2023-06-19T12:36:19;18.65;;;6.85;;
63005;SDS011;53704;52.532;6.426;2023-06-19T12:38:44;9.45;;;8.15;;
63005;SDS011;53704;52.532;6.426;2023-06-19T12:41:11;9.20;;;7.70;;
63005;SDS011;53704;52.532;6.426;2023-06-19T12:43:37;9.18;;;6.82;;
63005;SDS011;53704;52.532;6.426;2023-06-19T12:46:03;10.90;;;8.70;;
63005;SDS011;53704;52.532;6.426;2023-06-19T12:48:29;12.82;;;7.25;;
63005;SDS011;53704;52.532;6.426;2023-06-19T12:50:54;8.82;;;7.55;;
63005;SDS011;53704;52.532;6.426;2023-06-19T12:53:20;13.00;;;7.93;;
63005;SDS011;53704;52.532;6.426;2023-06-19T12:55:51;8.48;;;7.78;;
63005;SDS011;53704;52.532;6.426;2023-06-19T12:58:17;25.13;;;9.15;;
63005;SDS011;53704;52.532;6.426;2023-06-19T13:00:42;13.30;;;8.25;;
63005;SDS011;53704;52.532;6.426;2023-06-19T13:03:07;7.72;;;6.95;;
63005;SDS011;53704;52.532;6.426;2023-06-19T13:05:33;15.98;;;8.30;;
63005;SDS011;53704;52.532;6.426;2023-06-19T13:07:58;9.88;;;8.75;;
63005;SDS011;53704;52.532;6.426;2023-06-19T13:10:24;11.10;;;7.55;;
63005;SDS011;53704;52.532;6.426;2023-06-19T13:12:49;15.75;;;8.57;;
63005;SDS011;53704;52.532;6.426;2023-06-19T13:15:14;11.55;;;7.60;;
63005;SDS011;53704;52.532;6.426;2023-06-19T13:17:40;13.80;;;8.75;;
63005;SDS011;53704;52.532;6.426;2023-06-19T13:20:06;10.70;;;7.75;;
63005;SDS011;53704;52.532;6.426;2023-06-19T13:22:32;11.25;;;7.00;;
63005;SDS011;53704;52.532;6.426;2023-06-19T13:24:57;18.30;;;8.50;;
63005;SDS011;53704;52.532;6.426;2023-06-19T13:27:22;11.52;;;7.70;;
63005;SDS011;53704;52.532;6.426;2023-06-19T13:29:48;8.75;;;7.90;;
63005;SDS011;53704;52.532;6.426;2023-06-19T13:32:14;11.13;;;8.52;;
63005;SDS011;53704;52.532;6.426;2023-06-19T13:34:39;10.73;;;7.90;;
63005;SDS011;53704;52.532;6.426;2023-06-19T13:37:05;32.45;;;8.00;;
63005;SDS011;53704;52.532;6.426;2023-06-19T13:39:30;17.83;;;8.73;;
63005;SDS011;53704;52.532;6.426;2023-06-19T13:41:56;13.88;;;8.52;;
63005;SDS011;53704;52.532;6.426;2023-06-19T13:44:22;9.55;;;7.53;;
63005;SDS011;53704;52.532;6.426;2023-06-19T13:46:47;8.07;;;7.28;;
63005;SDS011;53704;52.532;6.426;2023-06-19T13:49:13;8.50;;;7.63;;
63005;SDS011;53704;52.532;6.426;2023-06-19T13:51:39;6.90;;;6.30;;
63005;SDS011;53704;52.532;6.426;2023-06-19T13:54:04;7.75;;;6.82;;
63005;SDS011;53704;52.532;6.426;2023-06-19T13:56:30;16.85;;;6.70;;
63005;SDS011;53704;52.532;6.426;2023-06-19T13:58:57;7.85;;;7.20;;
63005;SDS011;53704;52.532;6.426;2023-06-19T14:01:23;7.00;;;6.35;;
63005;SDS011;53704;52.532;6.426;2023-06-19T14:03:50;10.30;;;6.40;;
63005;SDS011;53704;52.532;6.426;2023-06-19T14:06:16;6.93;;;6.25;;
63005;SDS011;53704;52.532;6.426;2023-06-19T14:08:41;8.43;;;6.57;;
63005;SDS011;53704;52.532;6.426;2023-06-19T14:11:07;6.90;;;6.28;;
63005;SDS011;53704;52.532;6.426;2023-06-19T14:13:32;6.57;;;5.90;;
63005;SDS011;53704;52.532;6.426;2023-06-19T14:15:58;6.47;;;5.88;;
63005;SDS011;53704;52.532;6.426;2023-06-19T14:18:23;16.33;;;6.10;;
63005;SDS011;53704;52.532;6.426;2023-06-19T14:20:49;5.45;;;5.07;;
63005;SDS011;53704;52.532;6.426;2023-06-19T14:23:14;16.38;;;5.93;;
63005;SDS011;53704;52.532;6.426;2023-06-19T14:25:40;10.45;;;5.55;;
63005;SDS011;53704;52.532;6.426;2023-06-19T14:28:06;7.93;;;6.10;;
63005;SDS011;53704;52.532;6.426;2023-06-19T14:30:31;13.27;;;5.38;;
63005;SDS011;53704;52.532;6.426;2023-06-19T14:32:57;6.43;;;5.72;;
63005;SDS011;53704;52.532;6.426;2023-06-19T14:35:22;5.53;;;5.03;;
63005;SDS011;53704;52.532;6.426;2023-06-19T14:37:48;5.88;;;5.38;;
63005;SDS011;53704;52.532;6.426;2023-06-19T14:40:14;7.05;;;5.65;;
63005;SDS011;53704;52.532;6.426;2023-06-19T14:42:39;5.78;;;5.22;;
63005;SDS011;53704;52.532;6.426;2023-06-19T14:45:05;9.38;;;5.25;;
63005;SDS011;53704;52.532;6.426;2023-06-19T14:47:31;5.55;;;4.97;;
63005;SDS011;53704;52.532;6.426;2023-06-19T14:49:57;10.38;;;5.70;;
63005;SDS011;53704;52.532;6.426;2023-06-19T14:52:24;9.63;;;4.75;;
63005;SDS011;53704;52.532;6.426;2023-06-19T14:54:49;6.68;;;5.25;;
63005;SDS011;53704;52.532;6.426;2023-06-19T14:57:14;7.32;;;5.85;;
63005;SDS011;53704;52.532;6.426;2023-06-19T14:59:40;11.48;;;5.60;;
63005;SDS011;53704;52.532;6.426;2023-06-19T15:02:05;5.68;;;5.18;;
63005;SDS011;53704;52.532;6.426;2023-06-19T15:04:36;8.82;;;5.10;;
63005;SDS011;53704;52.532;6.426;2023-06-19T15:07:01;8.35;;;5.30;;
63005;SDS011;53704;52.532;6.426;2023-06-19T15:09:27;9.02;;;6.22;;
63005;SDS011;53704;52.532;6.426;2023-06-19T15:11:52;6.13;;;5.63;;
63005;SDS011;53704;52.532;6.426;2023-06-19T15:14:18;6.22;;;5.72;;
63005;SDS011;53704;52.532;6.426;2023-06-19T15:16:44;11.40;;;6.35;;
63005;SDS011;53704;52.532;6.426;2023-06-19T15:19:10;6.00;;;5.50;;
63005;SDS011;53704;52.532;6.426;2023-06-19T15:21:35;6.65;;;5.93;;
63005;SDS011;53704;52.532;6.426;2023-06-19T15:24:01;5.47;;;5.07;;
63005;SDS011;53704;52.532;6.426;2023-06-19T15:26:26;8.35;;;5.85;;
63005;SDS011;53704;52.532;6.426;2023-06-19T15:28:52;10.30;;;5.28;;
63005;SDS011;53704;52.532;6.426;2023-06-19T15:31:21;6.28;;;5.38;;
63005;SDS011;53704;52.532;6.426;2023-06-19T15:33:50;10.68;;;5.00;;
63005;SDS011;53704;52.532;6.426;2023-06-19T15:36:18;10.10;;;5.70;;
63005;SDS011;53704;52.532;6.426;2023-06-19T15:38:43;8.57;;;5.75;;
63005;SDS011;53704;52.532;6.426;2023-06-19T15:41:09;9.52;;;6.70;;
63005;SDS011;53704;52.532;6.426;2023-06-19T15:43:35;7.63;;;6.05;;
63005;SDS011;53704;52.532;6.426;2023-06-19T15:46:00;14.25;;;6.00;;